Time;durP1;ratioP1;P1;durP2;ratioP2;P2;SDS_P1;SDS_P2;PMS_P1;PMS_P2;Temp;Humidity;BMP_temperature;BMP_pressure;BME280_temperature;BME280_humidity;BME280_pressure;Samples;Min_cycle;Max_cycle;Signal;HPM_P1;HPM_P2
2022/06/02 00:02:04;;;;;;;4.10;3.70;;;;;;;17.46;83.33;99632.14;109263;1276;22458;-60
2022/06/02 00:04:37;;;;;;;5.60;3.90;;;;;;;17.45;83.32;99626.91;109075;1277;138483;-60
2022/06/02 00:07:19;;;;;;;8.60;3.60;;;;;;;17.46;83.48;99622.23;109263;1274;22428;-60
2022/06/02 00:09:56;;;;;;;5.00;3.40;;;;;;;17.47;83.49;99623.77;109190;1274;23195;-60
2022/06/02 00:12:29;;;;;;;;;;;;;;;17.46;83.25;99626.17;109042;1276;138090;-60
2022/06/02 00:15:34;;;;;;;8.30;3.50;;;;;;;17.44;83.10;99628.20;109266;1274;22445;-60
2022/06/02 00:18:09;;;;;;;4.90;3.50;;;;;;;17.46;83.27;99631.45;108590;1281;138038;-60
2022/06/02 00:20:41;;;;;;;5.10;3.40;;;;;;;17.48;83.28;99632.48;108532;1282;23150;-60
2022/06/02 00:23:40;;;;;;;4.90;3.70;;;;;;;17.47;83.60;99631.27;108364;1283;139534;-60
2022/06/02 00:26:25;;;;;;;4.50;3.50;;;;;;;17.48;83.83;99632.32;106786;1283;25502;-60
2022/06/02 00:29:19;;;;;;;4.80;3.20;;;;;;;17.47;83.88;99632.77;104364;1283;138444;-59
2022/06/02 00:31:54;;;;;;;7.50;3.80;;;;;;;17.43;83.96;99637.92;104437;1283;24244;-59
2022/06/02 00:34:49;;;;;;;5.20;3.10;;;;;;;17.38;84.11;99638.59;104049;1284;139675;-60
2022/06/02 00:37:26;;;;;;;5.50;3.30;;;;;;;17.37;84.16;99637.35;104500;1283;23991;-59
2022/06/02 00:39:53;;;;;;;4.60;2.80;;;;;;;17.37;84.37;99639.83;104314;1283;22603;-60
2022/06/02 00:42:23;;;;;;;5.60;3.70;;;;;;;17.36;84.27;99642.77;104104;1283;139048;-59
2022/06/02 00:44:54;;;;;;;5.50;3.20;;;;;;;17.34;84.38;99642.45;104353;1283;23212;-58
2022/06/02 00:47:59;;;;;;;4.90;3.50;;;;;;;17.35;84.56;99647.18;104408;1281;138330;-57
2022/06/02 00:51:03;;;;;;;4.80;3.10;;;;;;;17.35;84.57;99642.66;104153;1283;22666;-58
2022/06/02 00:53:41;;;;;;;3.30;3.00;;;;;;;17.36;84.64;99647.72;103910;1277;518675;-58
2022/06/02 00:57:46;;;;;;;3.50;2.70;;;;;;;17.35;84.27;99669.59;102052;1309;545226;-60
2022/06/02 01:00:19;;;;;;;4.10;3.20;;;;;;;17.28;84.07;99663.27;103634;1289;137759;-59
2022/06/02 01:02:53;;;;;;;5.50;3.20;;;;;;;17.27;83.77;99666.98;108311;1286;23588;-59
2022/06/02 01:05:42;;;;;;;4.70;3.30;;;;;;;17.27;83.62;99686.15;108711;1281;138421;-60
2022/06/02 01:08:09;;;;;;;7.90;4.60;;;;;;;17.27;83.43;99691.76;108683;1281;22476;-59
2022/06/02 01:10:45;;;;;;;4.20;3.70;;;;;;;17.29;83.56;99692.35;108427;1279;220526;-59
2022/06/02 01:13:21;;;;;;;5.40;3.70;;;;;;;17.29;83.38;99695.65;108724;1279;22451;-59
2022/06/02 01:15:57;;;;;;;4.90;3.30;;;;;;;17.30;83.25;99697.94;108994;1279;23263;-60
2022/06/02 01:18:24;;;;;;;4.20;3.20;;;;;;;17.30;83.26;99693.84;108973;1277;139771;-60
2022/06/02 01:21:03;;;;;;;8.30;3.90;;;;;;;17.34;83.12;99697.15;109011;1277;22492;-59
2022/06/02 01:23:53;;;;;;;5.30;3.50;;;;;;;17.36;82.92;99694.97;108696;1280;137944;-59
2022/06/02 01:26:26;;;;;;;5.90;3.50;;;;;;;17.37;82.49;99683.95;109007;1277;22447;-60
2022/06/02 01:29:21;;;;;;;6.50;3.40;;;;;;;17.37;82.05;99675.35;108825;1280;137869;-60
2022/06/02 01:32:01;;;;;;;8.50;3.70;;;;;;;17.38;81.78;99675.68;109024;1279;23391;-60
2022/06/02 01:34:41;;;;;;;5.00;3.00;;;;;;;17.38;81.51;99676.55;108713;1279;138275;-60
2022/06/02 01:37:32;;;;;;;4.10;3.30;;;;;;;17.39;81.21;99672.73;108850;1279;23708;-59
2022/06/02 01:40:01;;;;;;;4.20;3.30;;;;;;;17.41;80.79;99670.23;108752;1279;22514;-60
2022/06/02 01:42:42;;;;;;;5.00;3.40;;;;;;;17.42;80.57;99667.14;108858;1279;22478;-60
2022/06/02 01:45:24;;;;;;;4.30;3.90;;;;;;;17.43;80.59;99666.73;108633;1279;23280;-60
2022/06/02 01:47:58;;;;;;;8.60;4.00;;;;;;;17.44;80.44;99664.63;108516;1279;139237;-60
2022/06/02 01:50:31;;;;;;;5.20;3.70;;;;;;;17.44;80.31;99660.05;108570;1279;22545;-60
2022/06/02 01:53:10;;;;;;;6.90;4.30;;;;;;;17.45;79.90;99663.80;108584;1279;138268;-60
2022/06/02 01:55:41;;;;;;;6.50;3.50;;;;;;;17.45;79.79;99670.57;108844;1277;22570;-60
2022/06/02 01:58:19;;;;;;;3.60;3.30;;;;;;;17.44;79.67;99674.28;108824;1277;139304;-60
2022/06/02 02:00:47;;;;;;;5.20;3.40;;;;;;;17.40;79.79;99674.77;108969;1279;22444;-60
2022/06/02 02:03:24;;;;;;;4.50;3.50;;;;;;;17.39;79.77;99679.69;108788;1279;23320;-60
2022/06/02 02:05:58;;;;;;;5.80;3.30;;;;;;;17.35;79.85;99675.28;108923;1277;137821;-60
2022/06/02 02:08:34;;;;;;;5.60;4.10;;;;;;;17.27;79.94;99673.13;109021;1279;22443;-60
2022/06/02 02:11:20;;;;;;;5.90;4.10;;;;;;;17.20;80.37;99667.23;108818;1279;138663;-60
2022/06/02 02:14:01;;;;;;;4.90;3.60;;;;;;;17.15;80.71;99663.04;108916;1279;22463;-60
2022/06/02 02:16:40;;;;;;;5.30;3.80;;;;;;;17.09;80.98;99664.88;108817;1278;138137;-60
2022/06/02 02:19:41;;;;;;;3.70;3.30;;;;;;;17.03;81.06;99656.77;109026;1278;23491;-60
2022/06/02 02:22:21;;;;;;;5.00;3.50;;;;;;;16.95;81.20;99655.77;108823;1279;137950;-60
2022/06/02 02:25:21;;;;;;;6.50;4.10;;;;;;;16.91;81.52;99651.95;108968;1279;22474;-60
2022/06/02 02:28:04;;;;;;;6.10;3.80;;;;;;;16.88;81.70;99652.67;108990;1278;22401;-60
2022/06/02 02:30:50;;;;;;;9.70;3.60;;;;;;;16.84;81.87;99655.20;109005;1277;22590;-61
2022/06/02 02:33:51;;;;;;;6.90;3.80;;;;;;;16.80;82.07;99661.09;109022;1278;22757;-59
2022/06/02 02:36:37;;;;;;;4.60;3.70;;;;;;;16.76;82.29;99660.30;108889;1278;138197;-59
2022/06/02 02:39:40;;;;;;;13.00;4.10;;;;;;;16.74;82.75;99670.48;108966;1278;22434;-60
2022/06/02 02:42:26;;;;;;;4.40;3.90;;;;;;;16.72;83.05;99677.77;108854;1278;138168;-61
2022/06/02 02:45:25;;;;;;;6.20;3.60;;;;;;;16.71;83.47;99678.66;108789;1277;22484;-59
2022/06/02 02:48:01;;;;;;;7.00;4.00;;;;;;;16.73;83.91;99673.80;108798;1278;138611;-59
2022/06/02 02:50:30;;;;;;;5.50;3.80;;;;;;;16.74;84.20;99671.77;108894;1279;22474;-59
2022/06/02 02:53:02;;;;;;;5.10;3.80;;;;;;;16.77;84.41;99670.75;108889;1279;139375;-59
2022/06/02 02:55:52;;;;;;;6.20;4.70;;;;;;;16.80;84.35;99671.44;108751;1278;22500;-59
2022/06/02 02:58:41;;;;;;;8.50;4.60;;;;;;;16.87;84.23;99669.04;108703;1277;138726;-59
2022/06/02 03:01:18;;;;;;;9.00;4.90;;;;;;;16.94;84.18;99668.81;108780;1279;22537;-59
2022/06/02 03:04:13;;;;;;;7.10;4.80;;;;;;;17.03;84.00;99674.32;108931;1278;23293;-59
2022/06/02 03:06:42;;;;;;;8.50;4.60;;;;;;;17.12;83.84;99681.13;108995;1279;22543;-58
2022/06/02 03:09:19;;;;;;;7.30;4.70;;;;;;;17.21;83.52;99686.16;108955;1278;23969;-59
2022/06/02 03:12:03;;;;;;;5.00;4.50;;;;;;;17.30;83.55;99688.46;109112;1273;138946;-59
2022/06/02 03:14:42;;;;;;;6.40;4.70;;;;;;;17.38;83.40;99688.61;109240;1273;22448;-59
2022/06/02 03:17:30;;;;;;;7.50;4.70;;;;;;;17.45;83.23;99688.35;109231;1274;137773;-59
2022/06/02 03:20:16;;;;;;;5.60;4.80;;;;;;;17.53;82.96;99687.67;109205;1274;22503;-59
2022/06/02 03:23:10;;;;;;;7.30;5.40;;;;;;;17.61;82.72;99687.05;109157;1274;138835;-59
2022/06/02 03:25:39;;;;;;;7.20;4.70;;;;;;;17.68;82.21;99690.71;109296;1274;22470;-59
2022/06/02 03:28:15;;;;;;;4.70;4.10;;;;;;;17.74;81.66;99695.24;109090;1276;137967;-57
2022/06/02 03:30:44;;;;;;;4.30;3.90;;;;;;;17.81;80.91;99690.31;109354;1273;24299;-58
2022/06/02 03:33:33;;;;;;;5.30;3.60;;;;;;;17.86;80.17;99691.23;109120;1276;22433;-58
2022/06/02 03:36:21;;;;;;;4.20;3.50;;;;;;;17.93;79.53;99696.17;107665;1274;138077;-60
2022/06/02 03:38:57;;;;;;;4.50;4.00;;;;;;;17.99;78.92;99700.48;104860;1275;22675;-58
2022/06/02 03:42:02;;;;;;;6.90;3.40;;;;;;;18.06;78.57;99700.58;104854;1274;139470;-57
2022/06/02 03:44:35;;;;;;;5.20;3.70;;;;;;;18.13;77.98;99708.29;104934;1276;23067;-58
2022/06/02 03:47:05;;;;;;;4.80;3.40;;;;;;;18.18;77.50;99708.03;109188;1274;138897;-58
2022/06/02 03:49:48;;;;;;;5.60;3.50;;;;;;;18.23;77.23;99707.33;109249;1274;22429;-58
2022/06/02 03:52:15;;;;;;;4.70;3.30;;;;;;;18.29;77.11;99703.09;109127;1274;138015;-59
2022/06/02 03:54:50;;;;;;;6.80;3.40;;;;;;;18.34;77.05;99702.76;109272;1273;22503;-59
2022/06/02 03:57:43;;;;;;;4.50;3.90;;;;;;;18.39;76.69;99706.04;109246;1274;22500;-59
2022/06/02 04:00:43;;;;;;;5.30;3.30;;;;;;;18.46;76.59;99704.48;109202;1273;138065;-59
2022/06/02 04:03:10;;;;;;;3.40;2.90;;;;;;;18.51;76.32;99703.76;108667;1281;22565;-59
2022/06/02 04:05:50;;;;;;;6.30;3.80;;;;;;;18.56;76.06;99701.73;108306;1281;138963;-59
2022/06/02 04:08:34;;;;;;;6.40;3.90;;;;;;;18.61;75.96;99708.07;108671;1281;22448;-58
2022/06/02 04:11:14;;;;;;;7.50;4.00;;;;;;;18.66;75.63;99707.25;108546;1281;139715;-60
2022/06/02 04:14:00;;;;;;;4.50;3.70;;;;;;;18.70;75.54;99711.98;108617;1281;22508;-59
2022/06/02 04:16:51;;;;;;;3.90;3.50;;;;;;;18.76;75.24;99715.94;108640;1280;138277;-59
2022/06/02 04:22:12;;;;;;;8.50;4.10;;;;;;;18.91;75.62;99716.79;108517;1281;139211;-59
2022/06/02 04:24:56;;;;;;;7.00;3.70;;;;;;;18.98;75.31;99719.56;108672;1281;22618;-59
2022/06/02 04:27:28;;;;;;;3.20;2.90;;;;;;;19.06;75.02;99724.13;108780;1281;22451;-60
2022/06/02 04:30:09;;;;;;;6.10;3.80;;;;;;;19.16;74.76;99729.17;108545;1281;138246;-59
2022/06/02 04:32:45;;;;;;;6.30;3.90;;;;;;;19.27;73.73;99735.17;108756;1281;23064;-60
2022/06/02 04:35:34;;;;;;;6.10;3.10;;;;;;;19.37;73.01;99734.29;108309;1281;140096;-58
2022/06/02 04:38:37;;;;;;;6.90;3.80;;;;;;;19.47;72.38;99724.02;104441;1281;24232;-59
2022/06/02 04:41:34;;;;;;;4.30;3.80;;;;;;;19.58;71.73;99717.86;104311;1281;138164;-59
2022/06/02 04:44:22;;;;;;;4.60;4.00;;;;;;;19.67;71.58;99710.34;104329;1283;22568;-58
2022/06/02 04:46:52;;;;;;;5.40;3.10;;;;;;;19.73;71.05;99709.36;104435;1281;137974;-60
2022/06/02 04:49:41;;;;;;;6.30;3.90;;;;;;;19.78;70.31;99710.60;104470;1281;25376;-61
2022/06/02 04:52:11;;;;;;;3.70;3.10;;;;;;;19.80;69.73;99707.41;104361;1281;138147;-59
2022/06/02 04:54:42;;;;;;;5.50;4.00;;;;;;;19.83;69.79;99705.91;104445;1281;22628;-58
2022/06/02 04:57:38;;;;;;;4.40;3.10;;;;;;;19.85;69.53;99700.49;104476;1283;24121;-59
2022/06/02 05:00:21;;;;;;;4.90;3.80;;;;;;;19.90;69.90;99697.05;104359;1284;138312;-59
2022/06/02 05:03:18;;;;;;;4.60;3.70;;;;;;;19.95;69.75;99691.55;104396;1281;22552;-60
2022/06/02 05:06:03;;;;;;;7.70;3.70;;;;;;;20.01;69.76;99693.90;104221;1284;138732;-59
2022/06/02 05:08:53;;;;;;;4.10;3.20;;;;;;;20.07;69.44;99690.64;104166;1283;22719;-59
2022/06/02 05:11:37;;;;;;;9.00;5.50;;;;;;;20.12;68.85;99691.22;103672;1288;138238;-60
2022/06/02 05:14:22;;;;;;;5.90;3.90;;;;;;;20.21;68.83;99689.77;103776;1289;24264;-60
2022/06/02 05:17:14;;;;;;;7.00;4.10;;;;;;;20.37;69.01;99689.67;103898;1287;138002;-60
2022/06/02 05:19:46;;;;;;;5.20;3.60;;;;;;;20.60;68.34;99689.94;104415;1285;25019;-59
2022/06/02 05:22:52;;;;;;;5.10;3.60;;;;;;;20.77;67.58;99687.98;104087;1284;138898;-59
2022/06/02 05:25:53;;;;;;;7.20;4.40;;;;;;;21.01;67.19;99687.23;107887;1288;22490;-59
2022/06/02 05:28:40;;;;;;;8.50;3.90;;;;;;;21.28;66.29;99682.25;107498;1288;138096;-59
2022/06/02 05:31:28;;;;;;;5.00;3.70;;;;;;;21.53;65.15;99681.86;107673;1288;22574;-59
2022/06/02 05:34:26;;;;;;;5.60;3.60;;;;;;;21.85;64.18;99681.27;107936;1287;22485;-59
2022/06/02 05:37:20;;;;;;;8.70;3.80;;;;;;;22.11;63.24;99682.06;107973;1287;22444;-59
2022/06/02 05:39:47;;;;;;;8.10;3.90;;;;;;;22.19;62.47;99684.05;107807;1289;22518;-58
2022/06/02 05:42:30;;;;;;;6.70;3.50;;;;;;;22.20;62.54;99687.41;107741;1288;138074;-57
2022/06/02 05:45:24;;;;;;;5.50;3.80;;;;;;;22.21;62.37;99685.54;108046;1287;22542;-57
2022/06/02 05:47:58;;;;;;;5.70;3.50;;;;;;;22.26;62.50;99683.19;103718;1288;137919;-57
2022/06/02 05:50:36;;;;;;;4.90;3.50;;;;;;;22.32;62.52;99679.23;104392;1281;24237;-57
2022/06/02 05:53:26;;;;;;;6.30;3.10;;;;;;;22.42;62.09;99674.51;104234;1281;138914;-58
2022/06/02 05:56:14;;;;;;;4.30;3.60;;;;;;;22.59;61.89;99679.76;104477;1274;22530;-60
2022/06/02 05:58:59;;;;;;;6.00;4.10;;;;;;;22.80;61.15;99683.27;109220;1274;140100;-59
2022/06/02 06:01:42;;;;;;;8.80;4.20;;;;;;;23.00;61.49;99687.38;109269;1274;22424;-58
2022/06/02 06:04:19;;;;;;;6.10;3.30;;;;;;;23.20;59.95;99689.77;109243;1274;137790;-60
2022/06/02 06:06:55;;;;;;;7.00;4.60;;;;;;;23.34;58.92;99689.60;109197;1277;22465;-59
2022/06/02 06:09:34;;;;;;;;;;;;;;;23.42;58.32;99688.69;109144;1274;22502;-58
2022/06/02 06:12:17;;;;;;;7.80;4.40;;;;;;;23.40;58.82;99695.44;109175;1274;124240;-58
2022/06/02 06:14:56;;;;;;;4.70;3.80;;;;;;;23.41;58.48;99694.21;109239;1274;24830;-58
2022/06/02 06:17:48;;;;;;;4.60;4.10;;;;;;;23.43;58.60;99695.09;105312;1274;138083;-58
2022/06/02 06:20:40;;;;;;;7.40;3.70;;;;;;;23.43;58.64;99698.91;104894;1275;22718;-59
2022/06/02 06:23:33;;;;;;;4.70;3.60;;;;;;;23.41;58.47;99699.05;104841;1275;137543;-58
2022/06/02 06:26:29;;;;;;;8.30;4.20;;;;;;;23.39;58.98;99698.22;104814;1275;22719;-58
2022/06/02 06:29:30;;;;;;;8.10;3.90;;;;;;;23.33;58.80;99696.32;108707;1274;136529;-58
2022/06/02 06:32:08;;;;;;;7.90;4.00;;;;;;;23.21;58.90;99706.02;109234;1277;22642;-59
2022/06/02 06:34:45;;;;;;;4.40;3.60;;;;;;;23.08;59.15;99704.37;109134;1274;138301;-58
2022/06/02 06:37:38;;;;;;;4.80;4.00;;;;;;;23.05;59.72;99707.99;109212;1276;23563;-58
2022/06/02 06:40:29;;;;;;;11.10;4.40;;;;;;;22.98;59.56;99705.47;109163;1274;137501;-58
2022/06/02 06:43:15;;;;;;;7.90;4.30;;;;;;;22.90;59.84;99711.83;109263;1274;22456;-58
2022/06/02 06:45:46;;;;;;;7.10;4.50;;;;;;;22.85;59.95;99709.60;109201;1274;22450;-57
2022/06/02 06:48:18;;;;;;;6.30;3.70;;;;;;;22.86;60.49;99710.96;109156;1274;137363;-58
2022/06/02 06:51:03;;;;;;;5.50;4.20;;;;;;;22.89;60.39;99710.08;109267;1274;22400;-58
2022/06/02 06:53:48;;;;;;;6.60;4.20;;;;;;;22.89;59.78;99711.90;109176;1274;137531;-58
2022/06/02 06:56:39;;;;;;;5.70;4.60;;;;;;;22.82;60.21;99712.29;109330;1274;22474;-58
2022/06/02 06:59:24;;;;;;;8.10;4.50;;;;;;;22.76;60.34;99711.50;109076;1274;137861;-58
2022/06/02 07:02:01;;;;;;;5.40;4.10;;;;;;;22.74;60.34;99720.73;109337;1274;22406;-58
2022/06/02 07:04:39;;;;;;;10.90;4.70;;;;;;;22.73;60.92;99724.83;109203;1274;137724;-58
2022/06/02 07:07:15;;;;;;;4.80;4.20;;;;;;;22.77;61.10;99724.75;109399;1274;22451;-58
2022/06/02 07:10:21;;;;;;;7.60;4.70;;;;;;;22.82;61.31;99730.88;109252;1274;22481;-58
2022/06/02 07:13:02;;;;;;;5.50;4.50;;;;;;;22.87;60.56;99732.83;109366;1274;23183;-58
2022/06/02 07:15:31;;;;;;;7.40;5.20;;;;;;;22.88;60.38;99732.02;109198;1276;22450;-58
2022/06/02 07:18:01;;;;;;;5.20;4.60;;;;;;;22.88;60.54;99736.39;109192;1274;139120;-59
2022/06/02 07:20:54;;;;;;;21.30;16.10;;;;;;;22.89;60.46;99730.21;109308;1274;22464;-59
2022/06/02 07:23:39;;;;;;;12.40;4.60;;;;;;;22.93;60.82;99736.34;109143;1275;137847;-63
2022/06/02 07:26:28;;;;;;;5.90;4.40;;;;;;;23.01;60.90;99736.35;107728;1274;24231;-58
2022/06/02 07:29:16;;;;;;;5.90;3.70;;;;;;;23.12;60.79;99741.13;104972;1275;137993;-67
2022/06/02 07:31:55;;;;;;;13.60;5.00;;;;;;;23.20;60.89;99746.09;105138;1274;22516;-58
2022/06/02 07:34:38;;;;;;;9.70;4.20;;;;;;;23.27;60.31;99750.02;109130;1276;138523;-58
2022/06/02 07:37:24;;;;;;;5.60;4.20;;;;;;;23.33;59.16;99754.29;109314;1274;23513;-59
2022/06/02 07:40:06;;;;;;;6.90;6.10;;;;;;;23.35;58.63;99756.14;109356;1274;22488;-59
2022/06/02 07:42:51;;;;;;;6.00;4.20;;;;;;;23.37;59.02;99756.35;109397;1274;22462;-58
2022/06/02 07:46:03;;;;;;;5.60;3.50;;;;;;;23.40;58.97;99751.80;109344;1274;22442;-59
2022/06/02 07:49:04;;;;;;;4.90;4.10;;;;;;;23.45;58.76;99757.64;109334;1274;23282;-59
2022/06/02 07:51:46;;;;;;;5.60;4.30;;;;;;;23.53;59.08;99757.23;109256;1274;22443;-59
2022/06/02 07:54:19;;;;;;;5.40;4.30;;;;;;;23.56;58.79;99758.27;109180;1274;138788;-59
2022/06/02 07:56:51;;;;;;;4.50;4.00;;;;;;;23.59;58.68;99755.58;109374;1274;22417;-60
2022/06/02 07:59:38;;;;;;;4.60;3.70;;;;;;;23.62;58.76;99750.61;109093;1274;137382;-60
2022/06/02 08:02:24;;;;;;;;;;;;;;;23.68;57.68;99756.30;109411;1274;22498;-59
2022/06/02 08:05:28;;;;;;;6.50;4.40;;;;;;;23.72;57.04;99755.50;109161;1274;124099;-59
2022/06/02 08:07:59;;;;;;;5.00;4.10;;;;;;;23.77;56.80;99757.55;109364;1274;23230;-58
2022/06/02 08:11:03;;;;;;;4.80;3.50;;;;;;;23.82;56.68;99759.23;109201;1274;137785;-58
2022/06/02 08:13:46;;;;;;;6.60;4.00;;;;;;;23.88;56.51;99762.01;109291;1274;22229;-59
2022/06/02 08:16:22;;;;;;;4.20;3.70;;;;;;;23.94;56.40;99765.59;109336;1273;138902;-59
2022/06/02 08:19:09;;;;;;;7.10;3.60;;;;;;;23.99;56.25;99771.89;109259;1273;22438;-60
2022/06/02 08:21:47;;;;;;;3.50;3.20;;;;;;;24.03;56.05;99772.48;109308;1274;22493;-60
2022/06/02 08:24:29;;;;;;;5.30;3.30;;;;;;;24.08;54.95;99769.60;109180;1274;138425;-60
2022/06/02 08:26:59;;;;;;;4.40;3.50;;;;;;;24.14;54.55;99762.88;106057;1274;22895;-60
2022/06/02 08:29:35;;;;;;;4.20;3.60;;;;;;;24.18;54.25;99762.81;104998;1274;137327;-60
2022/06/02 08:32:36;;;;;;;6.50;5.00;;;;;;;24.22;53.54;99764.46;105076;1275;22560;-59
2022/06/02 08:35:14;;;;;;;3.70;3.30;;;;;;;24.27;54.24;99763.14;109227;1273;138970;-60
2022/06/02 08:37:55;;;;;;;5.10;3.70;;;;;;;24.30;54.23;99761.67;109274;1274;22443;-61
2022/06/02 08:40:56;;;;;;;4.10;3.70;;;;;;;24.33;53.97;99763.91;109220;1273;140327;-60
2022/06/02 08:44:00;;;;;;;4.90;4.10;;;;;;;24.36;54.47;99761.00;108767;1280;23608;-59
2022/06/02 08:46:43;;;;;;;5.90;4.70;;;;;;;24.40;54.59;99763.02;108622;1280;137790;-60
2022/06/02 08:49:32;;;;;;;6.30;4.40;;;;;;;24.43;54.35;99763.50;108540;1281;22481;-61
2022/06/02 08:52:34;;;;;;;5.20;4.70;;;;;;;24.46;54.66;99764.31;108702;1280;138487;-60
2022/06/02 08:55:30;;;;;;;6.00;5.00;;;;;;;24.49;54.16;99762.27;108734;1280;23907;-60
2022/06/02 08:59:02;;;;;;;6.20;4.80;;;;;;;24.48;53.93;99763.52;108001;1286;140204;-61
2022/06/02 09:02:04;;;;;;;10.10;5.00;;;;;;;24.49;54.32;99760.83;107129;1293;22422;-60
2022/06/02 09:04:39;;;;;;;6.70;5.00;;;;;;;24.52;54.71;99760.30;107197;1291;137802;-61
2022/06/02 09:07:24;;;;;;;7.90;5.80;;;;;;;24.54;54.64;99755.73;107141;1294;22415;-61
2022/06/02 09:10:48;;;;;;;9.60;5.50;;;;;;;24.59;55.18;99752.40;107056;1294;137828;-60
2022/06/02 09:13:42;;;;;;;9.90;5.30;;;;;;;24.65;54.94;99746.42;107245;1293;22547;-61
2022/06/02 09:16:17;;;;;;;6.30;4.80;;;;;;;24.73;54.98;99746.59;107111;1294;138688;-61
2022/06/02 09:19:22;;;;;;;7.90;5.20;;;;;;;24.78;55.14;99747.59;107240;1294;22484;-61
2022/06/02 09:22:10;;;;;;;5.90;5.10;;;;;;;24.84;54.82;99751.50;107596;1289;22639;-61
2022/06/02 09:24:45;;;;;;;10.10;5.10;;;;;;;24.86;54.39;99752.39;107720;1288;22472;-60
2022/06/02 09:27:43;;;;;;;7.30;5.40;;;;;;;24.89;54.61;99752.25;107624;1290;22464;-62
2022/06/02 09:30:28;;;;;;;;;;;;;;;24.99;55.52;99750.61;107657;1288;138922;-62
2022/06/02 09:36:09;;;;;;;6.20;5.10;;;;;;;25.15;53.71;99746.59;108756;1273;137526;-62
2022/06/02 09:39:05;;;;;;;9.10;5.40;;;;;;;25.19;52.91;99742.96;109338;1274;22409;-61
2022/06/02 09:41:44;;;;;;;5.80;4.90;;;;;;;25.19;52.97;99743.79;109233;1273;137648;-61
2022/06/02 09:44:22;;;;;;;8.80;6.00;;;;;;;25.20;54.08;99743.02;109374;1273;22447;-61
2022/06/02 09:47:16;;;;;;;10.90;7.80;;;;;;;25.24;55.03;99738.52;109212;1274;137528;-62
2022/06/02 09:50:38;;;;;;;10.70;7.30;;;;;;;25.31;54.85;99732.67;109290;1274;22238;-61
2022/06/02 09:53:17;;;;;;;8.80;5.60;;;;;;;25.38;54.33;99734.09;108273;1284;137589;-61
2022/06/02 09:55:46;;;;;;;10.40;4.70;;;;;;;25.44;54.34;99734.32;108337;1285;22508;-61
2022/06/02 09:58:28;;;;;;;6.50;5.00;;;;;;;25.49;53.29;99730.11;108141;1285;137753;-61
2022/06/02 10:01:15;;;;;;;7.60;4.60;;;;;;;25.55;52.49;99725.02;108279;1284;22518;-61
2022/06/02 10:03:51;;;;;;;5.00;3.90;;;;;;;25.61;52.17;99728.51;108299;1285;23482;-61
2022/06/02 10:06:58;;;;;;;5.20;3.50;;;;;;;25.68;51.49;99725.84;108202;1285;138913;-61
2022/06/02 10:09:59;;;;;;;4.10;3.70;;;;;;;25.75;51.01;99720.55;108282;1286;22434;-62
2022/06/02 10:12:55;;;;;;;6.30;4.10;;;;;;;25.80;51.28;99717.27;108257;1284;137816;-61
2022/06/02 10:15:40;;;;;;;6.00;3.50;;;;;;;25.88;50.56;99712.56;108216;1284;22428;-61
2022/06/02 10:18:26;;;;;;;4.40;3.60;;;;;;;25.98;50.27;99713.01;108189;1284;137475;-62
2022/06/02 10:21:04;;;;;;;5.20;4.00;;;;;;;26.05;49.30;99702.57;108369;1285;22516;-61
2022/06/02 10:23:46;;;;;;;6.60;4.80;;;;;;;26.08;48.99;99696.44;108169;1284;139237;-61
2022/06/02 10:26:35;;;;;;;6.90;4.00;;;;;;;26.10;49.83;99694.64;108290;1285;22389;-61
2022/06/02 10:29:39;;;;;;;5.90;4.00;;;;;;;26.11;50.11;99685.90;108480;1281;138357;-59
2022/06/02 10:32:15;;;;;;;5.20;3.90;;;;;;;26.12;49.48;99681.86;109415;1273;23123;-61
2022/06/02 10:35:01;;;;;;;5.00;4.30;;;;;;;26.13;49.02;99680.04;109157;1273;138675;-61
2022/06/02 10:37:58;;;;;;;5.00;3.90;;;;;;;26.11;48.46;99672.83;105205;1274;22619;-58
2022/06/02 10:40:46;;;;;;;22.90;17.30;;;;;;;26.10;48.88;99669.35;104781;1275;138210;-59
2022/06/02 10:43:26;;;;;;;6.20;4.00;;;;;;;26.03;48.99;99666.08;105006;1275;24323;-61
2022/06/02 10:46:27;;;;;;;5.10;3.90;;;;;;;25.99;48.75;99664.20;105016;1275;24302;-60
2022/06/02 10:49:15;;;;;;;5.70;4.00;;;;;;;25.95;49.23;99661.47;104991;1274;22582;-60
2022/06/02 10:52:01;;;;;;;;;;;;;;;25.94;48.75;99655.29;105035;1276;22558;-60
2022/06/02 10:55:03;;;;;;;4.30;3.60;;;;;;;25.91;49.21;99648.52;104820;1275;24285;-60
2022/06/02 10:57:42;;;;;;;9.40;4.30;;;;;;;25.94;49.84;99645.88;104482;1280;25601;-61
2022/06/02 11:00:36;;;;;;;9.70;4.00;;;;;;;25.95;48.73;99641.21;104291;1280;138146;-60
2022/06/02 11:03:24;;;;;;;7.60;6.70;;;;;;;25.97;48.76;99636.08;104465;1280;25338;-59
2022/06/02 11:06:28;;;;;;;9.80;5.30;;;;;;;25.97;49.41;99633.52;104440;1281;138438;-58
2022/06/02 11:09:04;;;;;;;5.00;3.90;;;;;;;25.98;49.94;99626.17;108830;1279;22425;-58
2022/06/02 11:11:55;;;;;;;4.40;3.50;;;;;;;25.99;49.80;99622.48;108440;1280;137299;-58
2022/06/02 11:14:55;;;;;;;4.70;3.90;;;;;;;26.02;50.18;99628.12;108554;1281;22495;-59
2022/06/02 11:17:46;;;;;;;16.50;14.40;;;;;;;26.04;50.50;99627.95;108792;1279;137785;-59
2022/06/02 11:20:28;;;;;;;10.60;8.00;;;;;;;26.06;50.53;99621.39;108611;1280;22432;-60
2022/06/02 11:23:26;;;;;;;14.30;4.60;;;;;;;26.10;50.16;99614.70;108482;1281;137585;-58
2022/06/02 11:26:14;;;;;;;7.20;4.10;;;;;;;26.12;50.31;99611.64;108726;1280;22412;-58
2022/06/02 11:28:51;;;;;;;15.30;4.90;;;;;;;26.15;50.67;99609.72;108724;1280;137498;-60
2022/06/02 11:31:44;;;;;;;4.50;4.00;;;;;;;26.18;50.42;99605.89;108623;1280;23359;-59
2022/06/02 11:34:14;;;;;;;6.90;4.10;;;;;;;26.21;49.69;99602.61;108678;1273;137577;-66
2022/06/02 11:37:02;;;;;;;7.00;4.10;;;;;;;26.22;49.59;99602.42;109244;1276;22443;-64
2022/06/02 11:40:06;;;;;;;5.40;3.70;;;;;;;26.24;49.69;99601.27;109371;1273;22481;-60
2022/06/02 11:42:37;;;;;;;7.40;4.60;;;;;;;26.26;49.73;99593.40;109210;1276;22362;-67
2022/06/02 11:45:19;;;;;;;8.00;4.20;;;;;;;26.28;49.26;99592.30;109259;1273;22500;-65
2022/06/02 11:48:07;;;;;;;6.10;3.70;;;;;;;26.31;48.55;99588.61;109234;1274;137345;-60
2022/06/02 11:51:00;;;;;;;6.60;3.90;;;;;;;26.32;49.09;99587.77;109322;1273;22436;-59
2022/06/02 11:53:52;;;;;;;8.10;3.50;;;;;;;26.35;49.42;99583.61;109016;1273;137779;-59
2022/06/02 11:56:30;;;;;;;4.00;3.60;;;;;;;26.38;49.25;99585.85;109291;1273;22527;-61
2022/06/02 11:59:16;;;;;;;6.90;3.50;;;;;;;26.40;48.91;99583.25;109166;1273;138113;-59
2022/06/02 12:02:02;;;;;;;60.10;46.30;;;;;;;26.43;47.96;99578.12;109307;1273;22425;-60
2022/06/02 12:04:44;;;;;;;13.50;6.50;;;;;;;26.44;47.77;99573.02;109171;1274;138310;-59
2022/06/02 12:07:56;;;;;;;5.90;4.00;;;;;;;26.47;47.61;99574.07;109238;1273;22437;-59
2022/06/02 12:10:56;;;;;;;10.00;3.80;;;;;;;26.49;46.73;99568.05;108602;1281;138066;-60
2022/06/02 12:13:44;;;;;;;5.50;3.70;;;;;;;26.52;47.10;99572.76;108806;1280;23376;-61
2022/06/02 12:16:26;;;;;;;9.70;3.50;;;;;;;26.56;47.85;99565.51;108601;1281;137998;-60
2022/06/02 12:19:14;;;;;;;6.60;3.20;;;;;;;26.63;47.96;99569.02;108750;1280;23345;-59
2022/06/02 12:21:44;;;;;;;;;;;;;;;26.68;47.46;99568.28;108745;1281;23376;-60
2022/06/02 12:24:31;;;;;;;5.00;3.70;;;;;;;26.73;47.77;99568.55;108638;1280;124377;-59
2022/06/02 12:27:09;;;;;;;9.20;3.90;;;;;;;26.79;47.25;99566.20;108699;1280;23795;-59
2022/06/02 12:29:57;;;;;;;6.60;3.80;;;;;;;26.83;46.84;99564.45;108427;1281;139310;-59
2022/06/02 12:32:59;;;;;;;6.40;3.50;;;;;;;26.88;46.98;99574.30;108612;1281;22457;-60
2022/06/02 12:35:39;;;;;;;8.10;3.60;;;;;;;26.92;46.50;99573.19;108421;1281;138474;-60
2022/06/02 12:38:11;;;;;;;6.10;4.00;;;;;;;26.95;45.83;99571.63;108693;1280;22492;-60
2022/06/02 12:41:12;;;;;;;5.20;3.40;;;;;;;26.98;45.89;99575.12;108639;1281;137705;-59
2022/06/02 12:43:43;;;;;;;7.60;3.40;;;;;;;27.03;46.76;99571.05;108804;1280;22464;-59
2022/06/02 12:46:47;;;;;;;5.20;3.40;;;;;;;27.07;47.11;99567.02;108462;1279;138088;-60
2022/06/02 12:49:39;;;;;;;6.70;4.20;;;;;;;27.10;45.06;99566.19;109370;1274;22441;-60
2022/06/02 12:52:16;;;;;;;5.30;3.30;;;;;;;27.07;44.43;99563.25;109178;1274;138551;-59